Challenge JP Guerit

Le Jogging Du Calvaire - Rance (8.20 km)

samedi 20 juillet 2019

Le classement original se trouve sur : http://www.challenge-guerit.be/
 
CHALLENGE JP GUERIT
LE JOGGING DU CALVAIRE - RANCE
DISTANCE 8.20 km
samedi 20 juillet 2019
 
place
finish
dos NOM Equipe Catég. Place
catégorie
temps temps/km Vitesse
1 151 DAMAGEUX REMI RRB SH 1 0:29:41 03:37 16.58
2 111 BOURGEOIS SÉBAS ESM V1 1 0:29:54 03:39 16.45
3 61 FRICOTEAUX VICTOR - SH 2 0:30:09 03:41 16.32
4 136 LAMBIN PIERRE UAC SH 3 0:30:22 03:42 16.20
5 62 VAN LERBERGHE MA JACO SH 4 0:30:35 03:44 16.09
6 128 HENNIAUX QUENTIN SHARKS SH 5 0:31:19 03:49 15.71
7 43 GHISLAIN MAXIMILIEN TDF SH 6 0:31:55 03:54 15.42
8 135 HASTIR FABRICE TRAKKS V1 2 0:31:59 03:54 15.38
9 65 BAILLY JONATHAN - SH 7 0:32:13 03:56 15.27
10 60 VAN GHELUWE RÉMI JACO SH 8 0:33:30 04:05 14.69
11 26 MAUDOUX LIONEL JACO SH 9 0:33:35 04:06 14.65
12 125 LECHAT NATHALIE VERTIGO A1 1 0:33:43 04:07 14.59
13 29 RIVEZ PIERRE LA THURE V3 1 0:33:46 04:07 14.57
14 20 HARDY MICHAËL LA THURE V1 3 0:33:53 04:08 14.52
15 153 DUFOUR JULIEN - SH 10 0:34:31 04:13 14.25
16 51 TOUZEAU JEAN-LUC - V1 4 0:34:47 04:15 14.14
17 113 KEISER NICOLAS JCHSH SH 11 0:35:05 04:17 14.02
18 130 RICHARD SÉBASTIEN CSCV HIRSON V1 5 0:35:18 04:18 13.94
19 139 POUCET QUENTIN - SH 12 0:35:24 04:19 13.90
20 126 HAEGEMAN REMY - V1 6 0:35:41 04:21 13.79
21 132 VAN LERBERGHE PIE - V2 1 0:35:46 04:22 13.76
22 134 DELOBBE JONATHAN JOG HERMETON SH 13 0:35:56 04:23 13.69
23 106 COLINET CÉDRIC - V1 7 0:36:00 04:23 13.67
24 129 NORDIER LUDOVIC - SH 14 0:36:28 04:27 13.49
25 54 GUIOT FABRICE LA THURE V2 2 0:36:32 04:27 13.47
26 10 BRUNEBARBE JOËL LA THURE V1 8 0:36:36 04:28 13.44
27 117 BLANCHARD POL HAM/HEURE SH 15 0:36:57 04:30 13.32
28 8 BRICE JEAN-MARIE - V3 2 0:37:22 04:33 13.17
29 101 BOUILLET NICOLAS LA THURE V1 9 0:37:34 04:35 13.10
30 123 AMANT BERTRAND LA THURE SH 16 0:37:57 04:38 12.96
31 63 DESMINEUR JÉRÔME AC FRONTIERES V1 10 0:38:32 04:42 12.77
32 14 DEVILLE PHILIPPE JTRR V3 3 0:38:34 04:42 12.76
33 122 ES CHRISTIAN AC FRONTIERES V3 4 0:38:36 04:42 12.75
34 57 LEJEUNE ALAIN JACO V2 3 0:38:38 04:43 12.73
35 154 DEGEZELLE STÉPHANE RTT 4C V2 4 0:38:43 04:43 12.71
36 155 BEKAERT THOMAS ARAMIS SH 17 0:39:35 04:50 12.43
37 114 DECLERCQ GUY - V3 5 0:39:37 04:50 12.42
38 103 BAUDOUX LOÏC HELIOS CHARLEROI SH 18 0:39:41 04:50 12.40
39 3 HENRARD ETIENNE AC FRONTIERES V3 6 0:39:42 04:50 12.39
40 19 HAMOIR KAREN ESM A1 2 0:39:43 04:51 12.39
41 64 DAMBROISE KRISTEL - SF 1 0:40:04 04:53 12.28
42 118 GUILLAUME SÉBAST JTRR-SHARKS TRI SH 19 0:40:23 04:55 12.18
43 11 CORDEWENER JOËL AC FRONTIERES V1 11 0:40:28 04:56 12.16
44 18 GUILLAUME YVES JTRR V2 5 0:40:48 04:59 12.06
45 33 VAN RENTERGHEM A ACCO V4 1 0:40:52 04:59 12.04
46 150 BIERWISCH J-MICHEL #TOUSMAUREEN V1 12 0:40:55 04:59 12.02
47 12 DETRE PASCAL RCABW V2 6 0:41:09 05:01 11.96
48 9 BRICE VIRGINIE ESM A1 3 0:41:19 05:02 11.91
49 149 LOISEAU GÉRY TABERNAK V1 13 0:41:35 05:04 11.83
50 107 SPITALERI MARIO CIAO ITALIA V3 7 0:41:42 05:05 11.80
51 47 NICOLAS CATHERINE - A1 4 0:41:47 05:06 11.78
52 49 SOKAY MICHEL LA THURE V4 2 0:41:47 05:06 11.78
53 58 POTY FRANCIS JC GERMINALT V2 7 0:41:49 05:06 11.77
54 4 AUBERT SERGE CHUDONDORGANES V3 8 0:42:09 05:08 11.67
55 119 LABOUREUR ERIC DAC REIMS SH 20 0:42:10 05:09 11.67
56 147 FOSTROY SABINE - A2 1 0:42:37 05:12 11.54
57 45 DE PESTEL HERVÉ VAULX V2 8 0:43:30 05:18 11.31
58 137 GILLES JEAN-GUY - V4 3 0:43:37 05:19 11.28
59 131 PRAIL CHRISTIAN ZONARD THUIN-L V4 4 0:43:52 05:21 11.22
60 27 PARISELLE JACKY AC FRONTIERES V4 5 0:44:10 05:23 11.14
61 145 BERNARD OLIVIER - V2 9 0:44:27 05:25 11.07
62 144 LECHAT ELISE JTRR JF 1 0:46:20 05:39 10.62
63 34 COLLART MARCELLE - A2 2 0:46:21 05:39 10.61
64 127 GILSON SÉBASTIEN - SH 21 0:46:23 05:39 10.61
65 121 LEMAIRE OLIVIER JACO V1 14 0:46:58 05:44 10.48
66 44 DE PESTEL COLINE VAULX SF 2 0:47:35 05:48 10.34
67 138 NAGELE PHILIPPE SSB COUVIN V2 10 0:47:41 05:49 10.32
68 148 GUILLAUME J-JACQ LA THURE V3 9 0:47:50 05:50 10.29
69 104 PREVOT CÉDRIC JACO V1 15 0:48:51 05:57 10.07
70 133 CORAZZA PHILIPPE PHILIPPEVILLE V2 11 0:48:59 05:58 10.04
71 108 ELIS AUDREY - A1 5 0:49:10 06:00 10.01
72 53 WIAME ANNE FAIREBEL A1 6 0:49:12 06:00 10.00
73 120 BOUILLET ELODIE - A1 7 0:49:16 06:00 9.99
74 146 LEFOUR FLORENCE JACO A2 3 0:49:25 06:02 9.96
75 116 HANNEVART ANTOINE - JH 1 0:49:30 06:02 9.94
76 115 HANNEVART LAURENT - V2 12 0:49:47 06:04 9.88
77 105 COLINET PAUL CAFOUR V4 6 0:50:06 06:07 9.82
78 627 LAFFINEUR KÉVIN LA THURE SH 22 0:50:18 06:08 9.78
79 102 PESTIAUX YVES LA THURE V4 7 0:52:09 06:22 9.43
80 124 BOGAERT ALINE - SF 3 0:53:49 06:34 9.14
81 152 DAIX CHRISTIANE PHILIPPEVILLE A2 4 0:55:50 06:49 8.81
82 143 GUIOT ALEXANDRA STRATOS SF 4 0:57:02 06:57 8.63
83 142 DECLERCQ LEO - JH 2 0:58:44 07:10 8.38
84 140 MORIAMÉ MARTTIN - SH 23 0:58:45 07:10 8.37
85 112 FRANKARD LUC JCHSM V2 13 1:01:46 07:32 7.97
86 141 PEANT MATTIAS - SH 24 1:01:47 07:32 7.96